createdAt,value
2022-12-06T00:01:47.029Z,66.07
2022-12-06T00:06:53.527Z,63.87
2022-12-06T00:11:57.553Z,65.53
2022-12-06T00:17:00.862Z,62.83
2022-12-06T00:22:04.116Z,62.67
2022-12-06T00:27:07.389Z,63.83
2022-12-06T05:31:10.563Z,22.60
2022-12-06T05:36:16.047Z,22.37
2022-12-06T05:41:20.122Z,21.70
2022-12-06T05:46:23.674Z,24.37
2022-12-06T05:51:26.816Z,24.93
2022-12-06T05:56:30.122Z,24.10
2022-12-06T06:01:33.352Z,22.47
2022-12-06T06:06:36.932Z,23.17
2022-12-06T06:11:40.223Z,25.17
2022-12-06T06:16:43.350Z,25.10
2022-12-06T06:21:47.108Z,25.77
2022-12-06T06:26:50.004Z,27.10
2022-12-06T06:31:52.969Z,28.77
2022-12-06T06:36:56.658Z,27.10
2022-12-06T06:42:00.010Z,31.50
2022-12-06T06:47:03.134Z,28.93
2022-12-06T06:52:06.330Z,29.30
2022-12-06T06:57:15.847Z,29.00
2022-12-06T07:02:20.860Z,27.27
2022-12-06T07:07:24.284Z,28.47
2022-12-06T07:12:27.102Z,33.13
2022-12-06T07:17:30.305Z,30.17
2022-12-06T07:22:33.630Z,29.63
2022-12-06T07:27:37.164Z,28.87
2022-12-06T07:32:40.037Z,26.00
2022-12-06T07:37:44.204Z,26.20
2022-12-06T07:43:05.915Z,32.00
2022-12-06T07:48:11.384Z,30.73
2022-12-06T07:53:14.979Z,29.60
2022-12-06T07:58:18.338Z,28.67
2022-12-06T08:03:21.750Z,27.70
2022-12-06T08:08:28.458Z,25.97
2022-12-06T08:13:32.792Z,28.83
2022-12-06T08:18:37.617Z,32.00
2022-12-06T08:23:41.028Z,30.20
2022-12-06T08:28:44.554Z,28.60
2022-12-06T08:33:48.167Z,28.90
2022-12-06T08:38:52.364Z,30.43
2022-12-06T08:43:56.651Z,35.60
2022-12-06T08:48:59.882Z,39.77
2022-12-06T08:54:04.204Z,36.77
2022-12-06T08:59:07.751Z,36.50
2022-12-06T09:04:11.965Z,37.77
2022-12-06T09:09:17.323Z,38.10
2022-12-06T09:14:22.263Z,35.43
2022-12-06T09:19:28.758Z,28.93
2022-12-06T09:24:32.316Z,27.23
2022-12-06T09:29:40.815Z,25.03
2022-12-06T09:34:44.715Z,25.37
2022-12-06T09:39:54.394Z,23.83
2022-12-06T09:45:16.180Z,21.93
2022-12-06T09:50:31.583Z,22.83
2022-12-06T09:55:44.322Z,23.00
2022-12-06T10:01:00.587Z,22.77
2022-12-06T10:06:08.865Z,23.80
2022-12-06T10:11:17.900Z,25.37
2022-12-06T10:16:45.327Z,26.47
2022-12-06T10:22:17.278Z,28.93
2022-12-06T10:27:45.093Z,29.00
2022-12-06T10:32:56.216Z,26.13
2022-12-06T10:38:17.465Z,21.97
2022-12-06T10:43:53.174Z,17.13
2022-12-06T10:49:04.841Z,14.87
2022-12-06T10:54:33.221Z,12.63
2022-12-06T11:00:11.834Z,10.70
2022-12-06T11:05:42.581Z,10.40
2022-12-06T11:10:46.923Z,12.23
2022-12-06T11:15:55.854Z,10.93
2022-12-06T11:21:18.219Z,5.30
2022-12-06T11:26:37.618Z,4.17
2022-12-06T11:31:47.489Z,4.13
2022-12-06T11:36:58.223Z,4.27
2022-12-06T11:42:04.664Z,6.50
2022-12-06T11:47:10.987Z,5.10
2022-12-06T11:52:29.749Z,4.77
2022-12-06T11:57:37.729Z,5.10
2022-12-06T12:02:42.619Z,6.53
2022-12-06T12:07:56.098Z,6.50
2022-12-06T12:13:29.426Z,6.50
2022-12-06T12:18:37.663Z,7.27
2022-12-06T12:23:48.282Z,8.30
2022-12-06T12:29:08.619Z,8.07
2022-12-06T12:34:28.993Z,8.43
2022-12-06T12:39:39.220Z,9.00
2022-12-06T12:44:46.759Z,11.97
2022-12-06T12:50:18.737Z,9.90
2022-12-06T12:55:24.653Z,9.70
2022-12-06T13:00:35.821Z,10.60
2022-12-06T13:05:46.538Z,11.33
2022-12-06T13:10:58.461Z,14.73
2022-12-06T13:16:08.917Z,12.80
2022-12-06T13:21:36.325Z,10.33
2022-12-06T13:26:48.748Z,10.83
2022-12-06T13:31:53.670Z,9.90
2022-12-06T13:36:58.383Z,9.67
2022-12-06T13:42:19.125Z,10.60
2022-12-06T13:47:28.596Z,10.80
2022-12-06T13:53:00.030Z,9.63
2022-12-06T13:58:03.245Z,11.70
2022-12-06T14:03:21.264Z,11.43
2022-12-06T14:08:41.605Z,11.73
2022-12-06T14:13:55.771Z,9.53
2022-12-06T14:18:59.607Z,10.70
2022-12-06T14:24:04.592Z,11.87
2022-12-06T14:29:22.194Z,9.70
2022-12-06T14:34:32.389Z,9.27
2022-12-06T14:39:35.768Z,11.07
2022-12-06T14:44:39.207Z,11.07
2022-12-06T14:50:00.987Z,9.90
2022-12-06T14:55:17.982Z,10.53
2022-12-06T15:00:31.677Z,10.47
2022-12-06T15:05:35.384Z,9.07
2022-12-06T15:10:38.688Z,10.40
2022-12-06T15:15:46.049Z,8.47
2022-12-06T15:20:50.269Z,8.80
2022-12-06T15:25:53.749Z,9.17
2022-12-06T15:30:57.167Z,14.13
2022-12-06T15:36:00.636Z,13.90
2022-12-06T15:41:04.320Z,13.60
2022-12-06T15:46:07.591Z,15.23
2022-12-06T15:51:20.192Z,13.47
2022-12-06T15:56:25.729Z,12.03
2022-12-06T16:01:33.801Z,10.20
2022-12-06T16:06:36.921Z,8.97
2022-12-06T16:11:40.874Z,9.53
2022-12-06T16:16:44.350Z,10.43
2022-12-06T16:21:56.097Z,8.70
2022-12-06T16:26:59.998Z,9.73
2022-12-06T16:32:03.084Z,8.03
2022-12-06T16:37:06.843Z,8.80
2022-12-06T16:42:09.839Z,9.73
2022-12-06T16:47:14.291Z,11.40
2022-12-06T16:52:17.931Z,11.80
2022-12-06T16:57:21.217Z,12.47
2022-12-06T17:02:29.636Z,13.07
2022-12-06T17:07:39.255Z,14.50
2022-12-06T17:12:43.518Z,11.23
2022-12-06T17:17:47.071Z,9.57
2022-12-06T17:22:50.517Z,9.00
2022-12-06T17:27:53.620Z,7.47
2022-12-06T17:32:57.181Z,8.07
2022-12-06T17:38:00.605Z,8.60
2022-12-06T17:43:04.256Z,8.50
2022-12-06T17:48:07.503Z,10.00
2022-12-06T17:53:10.815Z,12.23
2022-12-06T17:58:14.147Z,10.00
2022-12-06T18:03:17.566Z,11.53
2022-12-06T18:08:20.781Z,12.27
2022-12-06T18:13:24.180Z,9.50
2022-12-06T18:18:27.831Z,7.90
2022-12-06T18:23:31.042Z,6.90
2022-12-06T18:28:34.550Z,7.77
2022-12-06T18:33:39.262Z,8.53
2022-12-06T18:38:43.649Z,10.43
2022-12-06T18:43:47.878Z,13.70
2022-12-06T18:48:53.592Z,14.27
2022-12-06T18:53:58.518Z,15.70
2022-12-06T18:59:04.101Z,14.30
2022-12-06T19:04:09.441Z,13.30
2022-12-06T19:09:16.086Z,14.33
2022-12-06T19:14:19.687Z,12.60
2022-12-06T19:19:25.142Z,12.97
2022-12-06T19:24:30.124Z,13.70
2022-12-06T19:29:33.533Z,13.10
2022-12-06T19:34:37.107Z,13.00
2022-12-06T19:39:40.279Z,15.23
2022-12-06T19:44:43.661Z,13.40
2022-12-06T19:49:47.025Z,13.63
2022-12-06T19:54:50.819Z,14.27
2022-12-06T19:59:55.838Z,12.27
2022-12-06T20:04:59.109Z,12.03
2022-12-06T20:10:02.686Z,12.33
2022-12-06T20:15:06.772Z,13.93
2022-12-06T20:20:10.514Z,14.53
2022-12-06T20:25:13.892Z,13.93
2022-12-06T20:30:21.732Z,14.20
2022-12-06T20:35:26.783Z,12.90
2022-12-06T20:40:31.735Z,12.83
2022-12-06T20:45:35.257Z,12.97
2022-12-06T20:50:40.096Z,13.73
2022-12-06T20:55:43.421Z,13.50
2022-12-06T21:00:48.601Z,14.00
2022-12-06T21:06:05.495Z,13.63
2022-12-06T21:11:25.211Z,13.10
2022-12-06T21:16:30.728Z,12.33
2022-12-06T21:21:35.802Z,10.73
2022-12-06T21:26:39.102Z,10.30
2022-12-06T21:31:42.483Z,10.00
2022-12-06T21:36:46.001Z,9.87
2022-12-06T21:41:50.192Z,10.77
2022-12-06T21:46:54.561Z,10.47
2022-12-06T21:52:03.191Z,10.37
2022-12-06T21:57:10.880Z,11.03
2022-12-06T22:02:14.524Z,11.57
2022-12-06T22:07:18.004Z,12.83
2022-12-06T22:12:21.446Z,12.73
2022-12-06T22:17:24.922Z,11.73
2022-12-06T22:22:28.092Z,11.73
2022-12-06T22:27:31.436Z,10.97
2022-12-06T22:32:35.156Z,10.93
2022-12-06T22:37:38.426Z,10.93
2022-12-06T22:42:41.705Z,10.30
2022-12-06T22:47:46.509Z,9.83
2022-12-06T22:52:50.031Z,11.07
2022-12-06T22:57:53.454Z,11.53
2022-12-06T23:02:57.886Z,11.60
2022-12-06T23:08:01.316Z,11.93
2022-12-06T23:13:04.612Z,12.57
2022-12-06T23:18:07.931Z,12.90
2022-12-06T23:23:11.195Z,14.27
2022-12-06T23:28:14.613Z,12.60
2022-12-06T23:33:22.496Z,12.63
2022-12-06T23:38:26.268Z,11.50
2022-12-06T23:43:29.603Z,10.90
2022-12-06T23:48:32.981Z,10.40
2022-12-06T23:53:36.866Z,9.47
2022-12-06T23:58:41.513Z,9.97
